createdAt,value
2024-04-08T10:22:19.370Z,25.35
2024-04-08T10:32:22.732Z,25.39
2024-04-08T10:42:29.744Z,25.49
2024-04-08T10:52:34.420Z,25.53
2024-04-08T11:02:39.510Z,26.03
2024-04-08T11:12:42.473Z,26.85
2024-04-08T11:22:45.691Z,27.19
2024-04-08T11:32:48.599Z,28.99
2024-04-08T11:42:51.323Z,27.58
2024-04-08T11:52:54.768Z,28.15
2024-04-08T12:02:58.117Z,29.27
2024-04-08T12:13:17.161Z,28.12
2024-04-08T12:23:19.914Z,27.75
2024-04-08T12:33:22.677Z,27.58
2024-04-08T12:43:31.063Z,29.24
2024-04-08T12:53:39.408Z,29.88
2024-04-08T13:03:42.808Z,28.17
2024-04-08T13:13:48.177Z,28.79
2024-04-08T13:23:52.316Z,28.44
2024-04-08T13:33:57.750Z,28.01
2024-04-08T13:44:00.854Z,27.83
2024-04-08T13:54:03.896Z,27.72
2024-04-08T14:04:06.652Z,28.63
2024-04-08T14:14:09.340Z,29.25
2024-04-08T14:24:12.099Z,28.08
2024-04-08T14:34:16.108Z,27.17
2024-04-08T14:44:25.299Z,26.63
2024-04-08T14:54:35.310Z,26.64
2024-04-08T15:04:38.976Z,26.16
2024-04-08T15:14:41.630Z,25.56
2024-04-08T15:24:48.270Z,25.24
2024-04-08T15:34:52.092Z,25.25
2024-04-08T15:44:55.356Z,25.05
2024-04-08T15:54:58.086Z,25.17
2024-04-08T16:05:02.787Z,24.66
2024-04-08T16:15:07.336Z,24.28
2024-04-08T16:25:10.869Z,23.90
2024-04-08T16:35:14.037Z,23.73
2024-04-08T16:45:16.797Z,23.49
2024-04-08T16:55:19.406Z,23.19
2024-04-08T17:16:01.573Z,22.60
2024-04-08T17:26:06.709Z,22.22
2024-04-08T17:36:09.656Z,22.01
2024-04-08T17:46:12.788Z,21.83
2024-04-08T17:56:17.419Z,21.76
2024-04-08T18:06:21.713Z,21.55
2024-04-08T18:16:26.143Z,21.45
2024-04-08T18:26:29.326Z,21.29
2024-04-08T18:36:32.721Z,21.33
2024-04-08T18:46:35.871Z,21.19
2024-04-08T18:56:39.481Z,21.00
2024-04-08T19:06:42.195Z,21.12
2024-04-08T19:16:45.492Z,20.90
2024-04-08T19:26:48.361Z,20.84
2024-04-08T19:36:52.377Z,20.61
2024-04-08T19:46:55.493Z,20.36
2024-04-08T19:56:59.571Z,20.20
2024-04-08T20:07:02.641Z,20.07
2024-04-08T20:17:05.623Z,19.78
2024-04-08T20:27:09.636Z,19.76
2024-04-08T20:37:12.439Z,19.73
2024-04-08T20:47:15.051Z,19.55
2024-04-08T20:57:18.187Z,19.24
2024-04-08T21:07:20.764Z,19.05
2024-04-08T21:17:23.986Z,18.85
2024-04-08T21:27:27.256Z,18.88
2024-04-08T21:37:29.833Z,18.72
2024-04-08T21:47:32.486Z,18.77
2024-04-08T21:57:35.245Z,18.65
2024-04-08T22:07:37.815Z,18.60
2024-04-08T22:17:40.597Z,18.32
2024-04-08T22:27:43.143Z,18.12
2024-04-08T22:37:45.647Z,17.85
2024-04-08T22:47:48.675Z,17.84
2024-04-08T22:57:51.782Z,17.68
2024-04-08T23:07:54.381Z,17.73
2024-04-08T23:17:57.566Z,17.56
2024-04-08T23:28:00.309Z,17.65
2024-04-08T23:38:03.614Z,17.70
2024-04-08T23:48:06.640Z,17.53
2024-04-08T23:58:09.270Z,17.40
